Time;durP1;ratioP1;P1;durP2;ratioP2;P2;SDS_P1;SDS_P2;PMS_P1;PMS_P2;Temp;Humidity;BMP_temperature;BMP_pressure;BME280_temperature;BME280_humidity;BME280_pressure;Samples;Min_cycle;Max_cycle;Signal;HPM_P1;HPM_P2
2022/06/20 00:01:00;;;;;;;11.98;6.18;;;22.10;87.10;;;;;;2062136;28;20058;-69
2022/06/20 00:02:01;;;;;;;11.75;5.55;;;22.10;87.10;;;;;;2062353;28;20076;-69
2022/06/20 00:03:02;;;;;;;13.52;6.00;;;22.10;87.10;;;;;;2062125;28;20026;-68
2022/06/20 00:04:04;;;;;;;9.95;5.60;;;22.10;87.20;;;;;;2061445;28;20030;-70
2022/06/20 00:05:05;;;;;;;11.18;5.60;;;22.00;87.30;;;;;;2061554;28;20113;-68
2022/06/20 00:06:05;;;;;;;10.50;5.28;;;22.10;87.20;;;;;;2062152;28;20037;-69
2022/06/20 00:07:08;;;;;;;10.38;5.35;;;22.00;87.10;;;;;;2062059;28;20030;-68
2022/06/20 00:08:10;;;;;;;9.57;5.40;;;22.00;87.20;;;;;;2061589;28;20026;-68
2022/06/20 00:09:12;;;;;;;10.07;5.55;;;22.00;87.20;;;;;;2061572;28;20493;-69
2022/06/20 00:10:15;;;;;;;12.48;5.68;;;22.10;87.10;;;;;;2062472;28;20105;-69
2022/06/20 00:11:19;;;;;;;10.80;5.50;;;22.00;86.70;;;;;;2063194;28;20768;-70
2022/06/20 00:12:26;;;;;;;10.63;6.05;;;22.00;86.60;;;;;;2063134;28;20018;-70
2022/06/20 00:13:33;;;;;;;11.50;5.57;;;21.90;86.20;;;;;;2063702;28;20156;-69
2022/06/20 00:14:34;;;;;;;11.80;5.68;;;21.90;86.40;;;;;;2067131;28;20023;-69
2022/06/20 00:15:36;;;;;;;13.00;5.85;;;21.90;86.30;;;;;;2113660;28;20120;-69
2022/06/20 00:16:36;;;;;;;11.23;5.80;;;21.80;86.50;;;;;;2114036;28;20035;-69
2022/06/20 00:17:37;;;;;;;9.30;5.50;;;21.80;86.20;;;;;;2114363;28;20419;-69
2022/06/20 00:18:38;;;;;;;12.13;5.80;;;21.80;86.20;;;;;;2113784;28;20036;-69
2022/06/20 00:19:42;;;;;;;9.02;5.65;;;21.80;86.30;;;;;;2113967;28;20027;-70
2022/06/20 00:20:43;;;;;;;11.35;5.63;;;21.80;86.60;;;;;;2114510;28;20024;-70
2022/06/20 00:21:44;;;;;;;10.40;5.75;;;21.80;86.40;;;;;;2114409;28;20944;-70
2022/06/20 00:22:45;;;;;;;13.45;5.93;;;21.70;86.20;;;;;;2114730;28;20024;-71
2022/06/20 00:23:46;;;;;;;14.75;6.00;;;21.60;86.20;;;;;;2114469;28;20382;-71
2022/06/20 00:24:47;;;;;;;11.55;6.35;;;21.60;86.50;;;;;;2114641;28;20085;-71
2022/06/20 00:25:47;;;;;;;9.60;5.50;;;21.50;86.70;;;;;;2114558;28;20512;-71
2022/06/20 00:26:48;;;;;;;13.05;6.07;;;21.50;86.70;;;;;;2114622;28;20024;-69
2022/06/20 00:27:51;;;;;;;12.52;6.05;;;21.50;86.70;;;;;;2114730;28;20424;-69
2022/06/20 00:28:51;;;;;;;11.85;6.35;;;21.40;86.80;;;;;;2114229;28;20038;-69
2022/06/20 00:29:52;;;;;;;11.82;6.40;;;21.30;86.90;;;;;;2114417;28;20398;-71
2022/06/20 00:30:53;;;;;;;10.38;5.93;;;21.30;87.20;;;;;;2114448;28;20069;-69
2022/06/20 00:31:53;;;;;;;14.02;6.38;;;21.30;87.70;;;;;;2114385;28;20536;-69
2022/06/20 00:32:54;;;;;;;12.30;6.00;;;21.30;87.80;;;;;;2114393;28;20035;-69
2022/06/20 00:33:55;;;;;;;13.27;6.30;;;21.30;87.90;;;;;;2114358;28;20466;-69
2022/06/20 00:34:55;;;;;;;12.52;6.00;;;21.30;87.60;;;;;;2114236;28;20035;-69
2022/06/20 00:35:57;;;;;;;12.40;6.47;;;21.40;87.40;;;;;;2114311;28;20089;-69
2022/06/20 00:36:58;;;;;;;12.48;6.20;;;21.40;87.80;;;;;;2114381;28;20074;-69
2022/06/20 00:38:01;;;;;;;11.07;6.28;;;21.40;86.70;;;;;;2114372;28;20020;-68
2022/06/20 00:39:01;;;;;;;12.30;6.07;;;21.30;87.00;;;;;;2114354;28;20036;-68
2022/06/20 00:40:04;;;;;;;12.52;6.47;;;21.30;87.20;;;;;;2113632;28;20031;-68
2022/06/20 00:41:28;;;;;;;12.90;6.13;;;21.30;86.80;;;;;;2113825;28;20020;-69
2022/06/20 00:42:29;;;;;;;10.43;6.25;;;21.30;86.90;;;;;;2113698;28;20027;-68
2022/06/20 00:43:39;;;;;;;11.90;6.78;;;21.20;86.90;;;;;;2113705;28;20059;-69
2022/06/20 00:44:44;;;;;;;11.52;6.45;;;21.20;87.20;;;;;;2113454;28;20443;-68
2022/06/20 00:45:49;;;;;;;9.77;6.15;;;21.10;87.50;;;;;;2105856;28;20056;-68
2022/06/20 00:46:53;;;;;;;9.35;6.30;;;21.10;87.60;;;;;;2113827;28;20023;-69
2022/06/20 00:48:03;;;;;;;10.70;6.10;;;21.10;87.80;;;;;;2114316;28;20468;-68
2022/06/20 00:49:20;;;;;;;9.20;5.97;;;21.20;87.60;;;;;;2114288;28;20047;-69
2022/06/20 00:50:27;;;;;;;10.80;6.18;;;21.20;87.50;;;;;;2114322;28;20030;-69
2022/06/20 00:51:30;;;;;;;10.55;6.22;;;21.20;87.10;;;;;;2114453;28;20023;-69
2022/06/20 00:52:49;;;;;;;12.50;6.03;;;21.20;87.00;;;;;;2114385;28;20023;-69
2022/06/20 00:53:57;;;;;;;11.13;5.93;;;21.20;87.20;;;;;;2113450;28;20032;-69
2022/06/20 00:55:05;;;;;;;11.18;5.97;;;21.10;87.10;;;;;;2113595;28;20020;-70
2022/06/20 00:56:14;;;;;;;12.07;5.90;;;21.10;87.40;;;;;;2114221;28;20055;-69
2022/06/20 00:57:33;;;;;;;9.60;5.38;;;21.10;87.30;;;;;;2114317;28;20051;-69
2022/06/20 00:59:00;;;;;;;9.75;5.70;;;21.10;87.40;;;;;;2114011;28;20111;-69
2022/06/20 01:00:06;;;;;;;10.13;5.40;;;21.10;87.20;;;;;;2113508;28;20047;-69
2022/06/20 01:01:15;;;;;;;9.50;5.43;;;21.20;87.10;;;;;;2114102;27;20113;-69
2022/06/20 01:02:23;;;;;;;8.32;5.65;;;21.20;87.20;;;;;;2114178;28;20627;-71
2022/06/20 01:03:28;;;;;;;10.95;5.72;;;21.10;87.30;;;;;;2114419;28;20024;-69
2022/06/20 01:05:04;;;;;;;9.85;5.57;;;21.10;87.40;;;;;;2113815;28;20452;-69
2022/06/20 01:06:20;;;;;;;10.15;5.55;;;21.10;87.60;;;;;;2108368;28;20051;-69
2022/06/20 01:07:32;;;;;;;12.32;5.78;;;21.10;87.60;;;;;;2113488;28;20024;-69
2022/06/20 01:08:49;;;;;;;12.38;5.80;;;21.10;87.40;;;;;;2113875;28;20024;-68
2022/06/20 01:09:54;;;;;;;11.20;5.60;;;21.10;87.40;;;;;;2114230;28;20516;-69
2022/06/20 01:11:12;;;;;;;11.02;5.72;;;21.10;87.50;;;;;;2114359;28;20061;-69
2022/06/20 01:12:16;;;;;;;9.52;5.18;;;21.10;87.70;;;;;;2114039;28;20474;-69
2022/06/20 01:13:20;;;;;;;8.32;4.95;;;21.00;88.00;;;;;;2114166;28;20023;-69
2022/06/20 01:14:33;;;;;;;10.40;5.53;;;21.00;88.10;;;;;;2114138;28;20048;-70
2022/06/20 01:15:37;;;;;;;8.02;5.43;;;21.00;88.20;;;;;;2062473;28;20031;-68
2022/06/20 01:16:38;;;;;;;10.48;5.40;;;21.00;88.20;;;;;;2062411;28;20072;-69
2022/06/20 01:17:39;;;;;;;9.68;5.30;;;21.00;88.20;;;;;;2063026;28;20551;-69
2022/06/20 01:18:43;;;;;;;10.07;5.60;;;21.10;88.20;;;;;;2054425;28;20023;-69
2022/06/20 01:19:50;;;;;;;10.65;5.43;;;21.10;88.40;;;;;;2054936;28;20027;-69
2022/06/20 01:20:53;;;;;;;9.43;6.00;;;21.00;88.40;;;;;;2063102;28;20915;-69
2022/06/20 01:21:54;;;;;;;9.25;5.20;;;21.10;88.50;;;;;;2062983;28;20034;-69
2022/06/20 01:23:19;;;;;;;10.60;5.47;;;21.10;88.60;;;;;;2063246;28;20030;-70
2022/06/20 01:24:30;;;;;;;8.85;5.45;;;21.10;88.80;;;;;;2063091;28;20026;-69
2022/06/20 01:26:04;;;;;;;7.57;5.22;;;21.10;88.90;;;;;;2062345;28;20046;-69
2022/06/20 01:27:24;;;;;;;12.55;5.57;;;21.10;89.00;;;;;;2062812;28;20381;-69
2022/06/20 01:28:32;;;;;;;11.23;5.60;;;21.10;89.00;;;;;;2062639;28;20057;-69
2022/06/20 01:29:33;;;;;;;9.30;6.10;;;21.00;89.30;;;;;;2063357;28;20038;-69
2022/06/20 01:30:37;;;;;;;7.95;5.30;;;21.00;90.10;;;;;;2063296;28;20652;-69
2022/06/20 01:31:44;;;;;;;9.75;5.63;;;21.00;89.70;;;;;;2063082;28;20034;-69
2022/06/20 01:32:46;;;;;;;8.95;5.60;;;21.00;89.80;;;;;;2062935;28;20034;-69
2022/06/20 01:33:47;;;;;;;8.40;6.10;;;20.90;90.10;;;;;;2062890;28;20069;-69
2022/06/20 01:34:49;;;;;;;9.15;6.03;;;20.90;90.20;;;;;;2062806;28;20499;-69
2022/06/20 01:37:23;;;;;;;12.00;5.85;;;20.80;90.50;;;;;;2062983;28;20035;-69
2022/06/20 01:38:24;;;;;;;8.38;5.43;;;20.80;90.60;;;;;;2062620;28;20022;-69
2022/06/20 01:39:25;;;;;;;9.50;5.78;;;20.80;90.80;;;;;;2062210;28;20038;-70
2022/06/20 01:40:27;;;;;;;9.30;5.68;;;20.80;90.80;;;;;;2062190;28;20592;-69
2022/06/20 01:42:49;;;;;;;6.75;5.22;;;20.70;91.00;;;;;;2063002;28;20135;-70
2022/06/20 01:43:50;;;;;;;7.18;5.00;;;20.70;91.20;;;;;;2062875;28;20062;-69
2022/06/20 01:45:57;;;;;;;7.80;5.57;;;20.70;91.30;;;;;;2062647;28;20027;-69
2022/06/20 01:46:33;;;;;;;8.98;5.70;;;20.70;91.30;;;;;;2062725;28;20543;-69
2022/06/20 01:47:34;;;;;;;9.45;6.30;;;20.70;91.40;;;;;;2062713;28;20091;-69
2022/06/20 01:48:38;;;;;;;8.88;5.95;;;20.70;91.50;;;;;;2062553;28;20092;-69
2022/06/20 01:49:41;;;;;;;8.77;5.78;;;20.70;91.50;;;;;;2062772;28;20037;-69
2022/06/20 01:50:43;;;;;;;8.60;5.68;;;20.70;91.60;;;;;;2062356;28;20023;-69
2022/06/20 01:51:53;;;;;;;8.73;5.78;;;20.70;91.60;;;;;;2062022;28;20058;-68
2022/06/20 01:52:54;;;;;;;9.20;5.70;;;20.70;91.80;;;;;;2062207;28;20113;-68
2022/06/20 01:53:56;;;;;;;10.48;6.10;;;20.70;91.90;;;;;;2062658;28;20030;-69
2022/06/20 01:55:17;;;;;;;10.15;6.05;;;20.70;91.90;;;;;;2062410;28;20050;-69
2022/06/20 01:56:20;;;;;;;9.23;5.82;;;20.70;91.90;;;;;;2062651;28;20041;-69
2022/06/20 01:57:21;;;;;;;10.68;6.10;;;20.70;92.00;;;;;;2062607;28;20731;-68
2022/06/20 01:58:30;;;;;;;8.15;5.70;;;20.70;92.00;;;;;;2062465;28;20030;-69
2022/06/20 01:59:38;;;;;;;9.30;6.05;;;20.60;92.10;;;;;;2062798;28;20030;-69
2022/06/20 02:00:39;;;;;;;11.45;6.47;;;20.60;92.30;;;;;;2062511;28;20045;-69
2022/06/20 02:01:41;;;;;;;12.73;6.47;;;20.60;92.30;;;;;;2062704;28;20030;-69
2022/06/20 02:03:05;;;;;;;9.35;5.90;;;20.70;92.60;;;;;;2062613;28;20066;-69
2022/06/20 02:04:12;;;;;;;10.52;6.63;;;20.70;92.40;;;;;;2061847;28;20056;-69
2022/06/20 02:05:18;;;;;;;9.02;6.22;;;20.70;92.40;;;;;;2061985;28;20076;-69
2022/06/20 02:06:19;;;;;;;8.57;6.07;;;20.70;92.50;;;;;;2062625;28;20475;-69
2022/06/20 02:07:20;;;;;;;10.82;6.32;;;20.70;92.50;;;;;;2062532;28;20061;-68
2022/06/20 02:08:23;;;;;;;7.85;5.97;;;20.70;92.60;;;;;;2062421;28;20030;-69
2022/06/20 02:09:24;;;;;;;9.60;6.47;;;20.70;92.50;;;;;;2062588;28;20139;-69
2022/06/20 02:10:31;;;;;;;11.02;6.20;;;20.70;92.90;;;;;;2062457;28;20182;-69
2022/06/20 02:11:38;;;;;;;8.60;5.88;;;20.70;92.60;;;;;;2062651;28;20139;-69
2022/06/20 02:12:39;;;;;;;9.70;5.90;;;20.80;92.70;;;;;;2062481;28;20022;-69
2022/06/20 02:13:48;;;;;;;8.48;5.60;;;20.80;92.90;;;;;;2062400;28;20036;-69
2022/06/20 02:14:54;;;;;;;11.38;6.65;;;20.80;93.30;;;;;;2078186;28;20117;-69
2022/06/20 02:16:01;;;;;;;10.05;5.95;;;20.80;93.40;;;;;;2113275;28;20028;-69
2022/06/20 02:17:12;;;;;;;11.82;6.30;;;20.80;93.40;;;;;;2113287;28;20110;-69
2022/06/20 02:18:13;;;;;;;9.18;6.20;;;20.80;93.30;;;;;;2113250;28;20023;-69
2022/06/20 02:19:18;;;;;;;9.55;6.07;;;20.80;93.20;;;;;;2112991;28;20047;-69
2022/06/20 02:20:23;;;;;;;7.80;5.88;;;20.80;93.40;;;;;;2113216;28;20023;-69
2022/06/20 02:21:26;;;;;;;8.80;6.10;;;20.80;93.40;;;;;;2113016;28;20034;-70
2022/06/20 02:22:27;;;;;;;9.93;6.03;;;20.80;93.40;;;;;;2113216;28;20346;-70
2022/06/20 02:23:32;;;;;;;10.80;6.03;;;20.80;93.40;;;;;;2113217;28;20059;-71
2022/06/20 02:24:38;;;;;;;9.85;6.03;;;20.80;93.50;;;;;;2113171;28;20085;-68
2022/06/20 02:25:41;;;;;;;9.27;6.03;;;20.80;93.50;;;;;;2112655;28;20504;-70
2022/06/20 02:26:45;;;;;;;10.40;6.18;;;20.90;93.50;;;;;;2112667;28;20074;-71
2022/06/20 02:27:51;;;;;;;9.13;6.32;;;20.90;93.40;;;;;;2113089;28;20055;-71
2022/06/20 02:29:23;;;;;;;9.02;6.20;;;20.90;93.30;;;;;;2112259;28;20517;-70
2022/06/20 02:30:24;;;;;;;9.90;6.57;;;20.90;93.20;;;;;;2112773;28;20023;-71
2022/06/20 02:31:26;;;;;;;12.25;6.70;;;20.90;93.20;;;;;;2113339;28;20036;-70
2022/06/20 02:32:33;;;;;;;9.65;6.25;;;20.90;93.20;;;;;;2112786;28;20062;-69
2022/06/20 02:33:33;;;;;;;11.68;7.07;;;20.90;93.10;;;;;;2112414;28;20400;-70
2022/06/20 02:34:34;;;;;;;11.35;6.38;;;20.90;93.20;;;;;;2112982;28;20035;-68
2022/06/20 02:35:35;;;;;;;7.95;6.25;;;20.90;93.30;;;;;;2113060;28;20031;-68
2022/06/20 02:36:36;;;;;;;12.35;6.60;;;21.00;93.30;;;;;;2112330;28;20398;-68
2022/06/20 02:37:38;;;;;;;9.55;6.30;;;21.00;93.30;;;;;;2112392;28;20093;-68
2022/06/20 02:38:39;;;;;;;9.02;6.30;;;21.00;93.30;;;;;;2112134;28;20023;-69
2022/06/20 02:39:41;;;;;;;9.90;6.18;;;21.00;93.20;;;;;;2112561;28;20039;-69
2022/06/20 02:40:42;;;;;;;10.70;6.68;;;21.10;93.10;;;;;;2113202;28;20015;-69
2022/06/20 02:41:46;;;;;;;9.32;6.15;;;21.00;93.10;;;;;;2113408;28;20084;-69
2022/06/20 02:42:55;;;;;;;9.70;6.30;;;21.10;93.20;;;;;;2113784;28;20019;-69
2022/06/20 02:44:04;;;;;;;9.00;6.10;;;21.10;93.20;;;;;;2113919;28;20077;-69
2022/06/20 02:45:12;;;;;;;9.57;6.18;;;21.10;93.10;;;;;;2113471;28;20262;-69
2022/06/20 02:46:17;;;;;;;9.88;6.30;;;21.10;93.20;;;;;;2113585;28;20051;-69
2022/06/20 02:47:19;;;;;;;8.43;6.28;;;21.10;93.20;;;;;;2113320;28;20035;-70
2022/06/20 02:48:22;;;;;;;8.32;6.22;;;21.20;93.20;;;;;;2113375;28;20028;-70
2022/06/20 02:49:26;;;;;;;10.68;6.45;;;21.10;93.10;;;;;;2113256;28;20035;-70
2022/06/20 02:50:31;;;;;;;10.57;6.55;;;21.20;92.90;;;;;;2112976;28;20106;-69
2022/06/20 02:51:47;;;;;;;10.50;6.40;;;21.20;92.90;;;;;;2112498;28;20031;-70
2022/06/20 02:52:57;;;;;;;9.70;6.63;;;21.20;92.90;;;;;;2112520;28;20106;-70
2022/06/20 02:54:04;;;;;;;8.82;6.07;;;21.20;92.80;;;;;;2113263;28;20020;-70
2022/06/20 02:55:06;;;;;;;7.97;6.15;;;21.20;92.80;;;;;;2113057;28;20415;-70
2022/06/20 02:56:09;;;;;;;8.48;6.13;;;21.20;92.80;;;;;;2113090;28;20046;-70
2022/06/20 02:57:34;;;;;;;9.63;6.13;;;21.20;92.80;;;;;;2103912;28;20395;-70
2022/06/20 02:58:39;;;;;;;8.52;6.20;;;21.20;92.70;;;;;;2107375;28;20477;-69
2022/06/20 02:59:47;;;;;;;9.00;6.32;;;21.20;92.70;;;;;;2112218;28;20027;-69
2022/06/20 03:00:55;;;;;;;8.80;6.32;;;21.20;92.80;;;;;;2112642;28;20039;-70
2022/06/20 03:02:25;;;;;;;9.73;6.38;;;21.20;92.90;;;;;;2113099;28;20023;-70
2022/06/20 03:03:31;;;;;;;8.43;6.45;;;21.20;93.00;;;;;;2110780;28;20047;-70
2022/06/20 03:04:36;;;;;;;10.05;6.43;;;21.10;93.10;;;;;;2112486;28;20031;-70
2022/06/20 03:05:38;;;;;;;9.93;6.55;;;21.10;93.20;;;;;;2112582;28;20027;-70
2022/06/20 03:06:44;;;;;;;11.00;6.60;;;21.10;93.30;;;;;;2113016;28;20112;-70
2022/06/20 03:07:46;;;;;;;9.98;7.00;;;21.10;93.30;;;;;;2112834;28;20598;-69
2022/06/20 03:08:47;;;;;;;10.45;6.53;;;21.00;93.40;;;;;;2113220;28;20470;-69
2022/06/20 03:09:53;;;;;;;7.97;6.65;;;21.00;93.60;;;;;;2113009;28;20034;-70
2022/06/20 03:10:55;;;;;;;9.52;6.50;;;21.00;93.60;;;;;;2113169;28;20044;-69
2022/06/20 03:11:56;;;;;;;9.55;6.60;;;21.00;93.90;;;;;;2113028;28;20035;-69
2022/06/20 03:12:58;;;;;;;8.98;6.50;;;20.90;94.00;;;;;;2113055;28;20036;-69
2022/06/20 03:14:01;;;;;;;9.93;6.70;;;20.90;94.20;;;;;;2113092;28;20032;-69
2022/06/20 03:15:02;;;;;;;12.57;6.68;;;20.80;94.40;;;;;;2088970;28;20145;-69
2022/06/20 03:16:05;;;;;;;10.48;6.60;;;20.80;94.60;;;;;;2069922;28;20034;-70
2022/06/20 03:17:07;;;;;;;11.13;6.40;;;20.80;94.60;;;;;;2070524;28;20018;-69
2022/06/20 03:18:07;;;;;;;11.43;6.43;;;20.80;94.70;;;;;;2070386;28;20021;-69
2022/06/20 03:19:19;;;;;;;11.15;6.82;;;20.80;94.70;;;;;;2070252;28;20824;-70
2022/06/20 03:20:21;;;;;;;10.50;6.68;;;20.80;94.80;;;;;;2070394;28;20052;-69
2022/06/20 03:21:27;;;;;;;11.27;6.82;;;20.80;94.90;;;;;;2070356;28;20041;-70
2022/06/20 03:22:33;;;;;;;11.05;6.53;;;20.80;94.90;;;;;;2070352;28;20022;-69
2022/06/20 03:23:34;;;;;;;10.95;6.35;;;20.80;95.20;;;;;;2070509;28;20040;-69
2022/06/20 03:24:37;;;;;;;12.38;7.15;;;20.80;95.30;;;;;;2070249;28;20105;-70
2022/06/20 03:25:39;;;;;;;10.93;6.50;;;20.80;95.40;;;;;;2070244;28;20026;-70
2022/06/20 03:26:40;;;;;;;14.18;7.10;;;20.80;95.40;;;;;;2070241;28;20046;-70
2022/06/20 03:27:42;;;;;;;11.90;7.10;;;20.70;95.40;;;;;;2070126;28;20240;-69
2022/06/20 03:28:43;;;;;;;11.52;6.57;;;20.80;95.50;;;;;;2069532;28;20057;-69
2022/06/20 03:29:45;;;;;;;10.75;6.75;;;20.70;95.70;;;;;;2069526;28;20557;-69
2022/06/20 03:30:47;;;;;;;11.02;6.60;;;20.70;95.70;;;;;;2069627;28;20082;-69
2022/06/20 03:31:48;;;;;;;11.45;6.70;;;20.70;95.80;;;;;;2069514;28;20026;-70
2022/06/20 03:32:49;;;;;;;12.73;7.15;;;20.70;96.00;;;;;;2069982;28;20120;-70
2022/06/20 03:33:50;;;;;;;12.23;6.97;;;20.70;96.20;;;;;;2070137;28;20026;-69
2022/06/20 03:34:52;;;;;;;12.43;7.22;;;20.70;96.40;;;;;;2070262;28;20608;-70
2022/06/20 03:35:58;;;;;;;13.57;6.70;;;20.70;96.40;;;;;;2070101;28;20082;-70
2022/06/20 03:37:02;;;;;;;10.13;6.70;;;20.70;96.30;;;;;;2069601;28;20057;-69
2022/06/20 03:38:06;;;;;;;12.20;6.53;;;20.70;96.40;;;;;;2069749;28;20026;-70
2022/06/20 03:39:07;;;;;;;8.88;6.57;;;20.70;96.40;;;;;;2070068;28;20109;-70
2022/06/20 03:40:08;;;;;;;14.85;7.15;;;20.80;96.50;;;;;;2070234;28;20026;-69
2022/06/20 03:41:12;;;;;;;13.15;7.40;;;20.80;96.40;;;;;;2069616;28;20105;-69
2022/06/20 03:42:14;;;;;;;12.30;7.10;;;20.70;96.60;;;;;;2069683;28;20026;-69
2022/06/20 03:43:19;;;;;;;13.07;6.90;;;20.70;96.70;;;;;;2069653;28;20038;-70
2022/06/20 03:44:32;;;;;;;13.38;7.07;;;20.70;96.70;;;;;;2069973;28;20048;-69
2022/06/20 03:45:36;;;;;;;10.70;7.00;;;20.80;96.70;;;;;;2071162;28;20030;-69
2022/06/20 03:46:53;;;;;;;11.27;7.20;;;20.80;96.60;;;;;;2071094;28;20476;-69
2022/06/20 03:48:16;;;;;;;10.85;7.07;;;20.80;96.50;;;;;;2071830;28;20578;-70
2022/06/20 03:49:26;;;;;;;13.10;7.20;;;20.90;96.40;;;;;;2071463;28;20030;-69
2022/06/20 03:50:35;;;;;;;11.40;6.80;;;20.90;96.40;;;;;;2071708;28;20037;-69
2022/06/20 03:51:42;;;;;;;10.73;6.90;;;20.90;96.30;;;;;;2070890;28;20038;-69
2022/06/20 03:52:52;;;;;;;13.50;7.20;;;20.90;96.30;;;;;;2071095;28;20422;-70
2022/06/20 03:54:08;;;;;;;10.45;6.97;;;20.90;96.20;;;;;;2071627;28;20125;-70
2022/06/20 03:55:22;;;;;;;11.80;6.97;;;20.80;96.20;;;;;;2070877;28;20861;-69
2022/06/20 03:56:27;;;;;;;11.73;6.80;;;20.80;96.20;;;;;;2071162;28;20022;-69
2022/06/20 03:57:40;;;;;;;9.57;6.53;;;20.90;96.30;;;;;;2070726;28;20029;-69
2022/06/20 03:58:49;;;;;;;9.77;6.32;;;20.90;96.30;;;;;;2070881;28;20037;-70
2022/06/20 04:00:05;;;;;;;10.35;6.20;;;20.90;96.20;;;;;;2062921;28;20041;-70
2022/06/20 04:01:20;;;;;;;11.43;6.90;;;21.00;95.90;;;;;;2066299;28;20057;-70
2022/06/20 04:02:39;;;;;;;10.82;6.80;;;21.10;95.80;;;;;;2071685;28;20022;-70
2022/06/20 04:04:02;;;;;;;11.32;7.00;;;21.10;95.50;;;;;;2071131;28;20045;-70
2022/06/20 04:05:30;;;;;;;11.07;6.75;;;21.20;95.30;;;;;;2071226;28;20485;-70
2022/06/20 04:06:37;;;;;;;8.90;6.45;;;21.30;95.10;;;;;;2071508;28;20498;-70
2022/06/20 04:07:51;;;;;;;11.27;6.53;;;21.40;94.80;;;;;;2071768;28;20617;-69
2022/06/20 04:11:59;;;;;;;10.75;5.93;;;21.70;93.10;;;;;;2071803;28;20040;-70
2022/06/20 04:13:16;;;;;;;12.02;6.35;;;21.90;92.70;;;;;;2071640;28;20025;-70
2022/06/20 04:14:25;;;;;;;9.52;6.35;;;22.00;92.00;;;;;;2071512;28;20036;-69
2022/06/20 04:15:39;;;;;;;9.55;5.78;;;22.00;91.70;;;;;;2071387;28;20080;-70
2022/06/20 04:16:46;;;;;;;8.85;5.57;;;22.10;91.40;;;;;;2070973;28;20029;-70
2022/06/20 04:19:38;;;;;;;9.82;5.75;;;22.20;91.00;;;;;;2071422;28;20491;-69
2022/06/20 04:20:57;;;;;;;8.95;6.05;;;22.00;91.10;;;;;;2071566;28;20503;-69
2022/06/20 04:22:09;;;;;;;9.30;5.40;;;22.00;91.20;;;;;;2070685;28;20100;-69
2022/06/20 04:23:22;;;;;;;10.45;5.80;;;22.10;91.10;;;;;;2064124;28;20034;-70
2022/06/20 04:24:47;;;;;;;8.80;5.68;;;22.30;90.90;;;;;;2071031;28;20079;-69
2022/06/20 04:26:19;;;;;;;9.68;5.47;;;22.50;90.30;;;;;;2071490;28;20154;-70
2022/06/20 04:27:25;;;;;;;8.73;5.63;;;22.60;90.00;;;;;;2071621;28;20026;-69
2022/06/20 04:28:42;;;;;;;11.68;6.25;;;22.70;88.80;;;;;;2071324;28;20033;-70
2022/06/20 04:30:03;;;;;;;12.32;6.00;;;22.70;88.20;;;;;;2071569;28;20057;-70
2022/06/20 04:31:29;;;;;;;;;;;22.70;88.20;;;;;;2072031;28;20120;-69
2022/06/20 04:32:47;;;;;;;8.13;5.82;;;22.80;87.90;;;;;;2068411;28;19910;-70
2022/06/20 04:34:11;;;;;;;9.27;5.43;;;22.90;87.30;;;;;;2070802;28;20495;-70
2022/06/20 04:35:23;;;;;;;11.35;5.60;;;23.00;87.00;;;;;;2070908;28;20045;-70
2022/06/20 04:36:37;;;;;;;15.57;6.00;;;23.00;86.50;;;;;;2071029;28;20030;-70
2022/06/20 04:37:41;;;;;;;10.63;5.57;;;23.10;86.20;;;;;;2070807;28;20045;-70
2022/06/20 04:38:49;;;;;;;10.48;6.88;;;23.20;86.20;;;;;;2071003;28;20053;-69
2022/06/20 04:40:09;;;;;;;8.20;5.85;;;23.20;85.50;;;;;;2071886;28;20026;-70
2022/06/20 04:41:34;;;;;;;8.40;5.60;;;23.40;84.80;;;;;;2071670;28;20022;-69
2022/06/20 04:42:50;;;;;;;8.18;5.65;;;23.40;84.60;;;;;;2071602;28;20290;-70
2022/06/20 04:43:57;;;;;;;10.57;5.65;;;23.40;84.10;;;;;;2071771;28;20041;-70
2022/06/20 04:45:11;;;;;;;9.35;5.50;;;23.50;83.80;;;;;;2071491;28;20448;-70
2022/06/20 04:46:17;;;;;;;8.55;5.53;;;23.60;83.90;;;;;;2071290;28;20065;-70
2022/06/20 04:47:28;;;;;;;8.93;5.05;;;23.80;83.50;;;;;;2071427;28;20115;-70
2022/06/20 04:48:30;;;;;;;9.73;5.22;;;24.00;82.80;;;;;;2071276;28;20029;-70
2022/06/20 04:49:31;;;;;;;7.85;5.35;;;24.20;81.90;;;;;;2072716;28;20060;-70
2022/06/20 04:50:34;;;;;;;6.95;4.65;;;24.30;81.30;;;;;;2071384;28;20030;-70
2022/06/20 04:51:39;;;;;;;9.15;5.30;;;24.30;80.90;;;;;;2071589;28;20036;-70
2022/06/20 04:52:40;;;;;;;9.00;5.03;;;24.50;80.30;;;;;;2071482;28;20053;-70
2022/06/20 04:53:42;;;;;;;8.68;5.50;;;24.60;79.40;;;;;;2071469;28;20386;-69
2022/06/20 04:54:43;;;;;;;10.48;5.50;;;24.70;78.60;;;;;;2071345;28;20049;-69
2022/06/20 04:55:52;;;;;;;9.32;5.72;;;24.60;78.60;;;;;;2070890;28;20022;-69
2022/06/20 04:56:54;;;;;;;9.25;5.57;;;24.70;78.30;;;;;;2071138;28;20025;-69
2022/06/20 04:57:59;;;;;;;13.65;6.05;;;24.60;78.90;;;;;;2071352;28;20034;-71
2022/06/20 04:59:07;;;;;;;12.13;6.32;;;24.50;79.20;;;;;;2070875;28;20077;-71
2022/06/20 05:00:17;;;;;;;10.00;5.82;;;24.30;79.60;;;;;;2070931;28;20028;-69
2022/06/20 05:01:19;;;;;;;17.92;10.30;;;24.00;80.90;;;;;;2071109;28;20025;-69
2022/06/20 05:02:22;;;;;;;10.93;7.10;;;23.60;82.60;;;;;;2071562;28;20060;-69
2022/06/20 05:03:46;;;;;;;11.15;6.57;;;23.20;84.60;;;;;;2071310;28;20567;-69
2022/06/20 05:04:49;;;;;;;10.25;6.65;;;22.70;87.20;;;;;;2071426;28;20026;-69
2022/06/20 05:05:52;;;;;;;9.25;6.30;;;22.50;89.10;;;;;;2071296;28;20293;-69
2022/06/20 05:06:55;;;;;;;10.63;6.50;;;22.20;90.40;;;;;;2071347;28;20491;-69
2022/06/20 05:07:56;;;;;;;10.27;6.40;;;22.10;91.20;;;;;;2071490;28;20034;-69
2022/06/20 05:09:15;;;;;;;11.15;6.68;;;22.00;91.90;;;;;;2071002;28;20131;-70
2022/06/20 05:10:25;;;;;;;11.38;6.68;;;21.80;93.10;;;;;;2071075;28;20029;-69
2022/06/20 05:11:31;;;;;;;12.50;6.63;;;21.50;94.00;;;;;;2062421;28;20041;-69
2022/06/20 05:12:39;;;;;;;12.93;7.13;;;21.50;94.30;;;;;;2063547;28;20046;-71
2022/06/20 05:13:47;;;;;;;9.68;6.38;;;21.50;94.40;;;;;;2071817;28;20029;-68
2022/06/20 05:15:12;;;;;;;11.07;6.40;;;21.40;94.90;;;;;;2071360;28;20030;-69
2022/06/20 05:16:19;;;;;;;9.98;6.60;;;21.40;95.40;;;;;;2071176;28;20041;-69
2022/06/20 05:17:25;;;;;;;8.98;6.55;;;21.50;95.70;;;;;;2071147;28;20048;-68
2022/06/20 05:18:29;;;;;;;11.18;6.57;;;21.80;95.40;;;;;;2070905;28;20523;-69
2022/06/20 05:19:39;;;;;;;8.35;5.75;;;22.00;94.80;;;;;;2071142;28;20041;-69
2022/06/20 05:20:42;;;;;;;11.50;6.27;;;22.50;93.80;;;;;;2071104;28;20042;-69
2022/06/20 05:21:47;;;;;;;9.20;5.85;;;22.90;92.60;;;;;;2070929;28;20384;-69
2022/06/20 05:23:03;;;;;;;11.30;6.20;;;23.30;91.10;;;;;;2071141;28;20071;-69
2022/06/20 05:24:13;;;;;;;10.07;6.28;;;23.70;89.70;;;;;;2070188;28;20117;-69
2022/06/20 05:25:21;;;;;;;9.13;6.15;;;24.10;86.80;;;;;;2070508;28;20030;-70
2022/06/20 05:26:25;;;;;;;10.32;6.38;;;24.40;85.20;;;;;;2071280;28;20144;-71
2022/06/20 05:27:30;;;;;;;12.57;6.90;;;24.80;83.10;;;;;;2071256;28;20411;-69
2022/06/20 05:28:32;;;;;;;12.18;6.10;;;25.00;81.20;;;;;;2070953;28;20037;-69
2022/06/20 05:29:36;;;;;;;11.93;6.50;;;25.20;80.10;;;;;;2071088;28;20022;-69
2022/06/20 05:30:39;;;;;;;12.75;6.55;;;25.50;79.40;;;;;;2070656;28;20038;-70
2022/06/20 05:31:44;;;;;;;10.48;6.22;;;25.50;78.00;;;;;;2070915;28;20041;-69
2022/06/20 05:32:50;;;;;;;9.55;5.70;;;25.60;78.20;;;;;;2070607;28;20026;-69
2022/06/20 05:34:02;;;;;;;12.68;6.18;;;25.80;77.60;;;;;;2070070;28;20124;-70
2022/06/20 05:35:08;;;;;;;10.85;6.45;;;25.90;76.20;;;;;;2070088;28;20072;-70
2022/06/20 05:36:18;;;;;;;15.90;6.30;;;25.50;76.70;;;;;;2070741;28;20041;-70
2022/06/20 05:38:01;;;;;;;10.85;6.25;;;25.40;77.00;;;;;;2070723;28;20451;-70
2022/06/20 05:39:17;;;;;;;10.60;5.97;;;25.30;77.20;;;;;;2070524;28;20112;-69
2022/06/20 05:40:21;;;;;;;8.20;5.65;;;25.40;77.80;;;;;;2070766;28;20114;-70
2022/06/20 05:41:22;;;;;;;8.32;6.28;;;25.70;77.20;;;;;;2070724;28;20433;-70
2022/06/20 05:42:23;;;;;;;9.23;5.70;;;25.80;76.00;;;;;;2070678;28;20050;-70
2022/06/20 05:43:27;;;;;;;11.45;6.70;;;25.80;75.90;;;;;;2070027;28;20037;-70
2022/06/20 05:44:27;;;;;;;10.57;6.35;;;25.80;75.10;;;;;;2069985;28;20030;-70
2022/06/20 05:45:30;;;;;;;9.98;6.03;;;25.70;75.10;;;;;;2070581;28;20045;-70
2022/06/20 05:46:36;;;;;;;8.52;5.85;;;25.80;75.20;;;;;;2070847;28;20038;-70
2022/06/20 05:47:38;;;;;;;11.18;6.25;;;25.80;74.80;;;;;;2070427;28;20025;-70
2022/06/20 05:48:46;;;;;;;9.55;5.78;;;25.80;75.20;;;;;;2070355;28;20037;-70
2022/06/20 05:50:01;;;;;;;8.55;5.90;;;25.80;74.80;;;;;;2070605;28;20029;-70
2022/06/20 05:51:04;;;;;;;7.85;5.55;;;25.80;74.80;;;;;;2070615;28;20033;-70
2022/06/20 05:52:07;;;;;;;9.45;5.95;;;25.80;75.10;;;;;;2070481;28;20030;-70
2022/06/20 05:53:23;;;;;;;9.18;5.72;;;25.70;74.80;;;;;;2069798;28;20439;-70
2022/06/20 05:54:29;;;;;;;9.30;6.38;;;25.50;74.80;;;;;;2063762;28;20585;-71